Arlington, Arizona
Current Conditions -  °F | °C
As of 3:35 AM on Thursday 23 Oct 2014 (Local Time) from KBXK Reporting Station
NA  
Wind Chill: 59°   Ceiling: NA
Heat Index: 59°   Visibility: 10mi
Dew Point: 45°   Wind: 6mph
Humidity: 59%   Direction: 340°NNW
Pressure: 29.96"   Gusts: NA
Location:  33.33°N, 112.77°W
Report Text: KBXK 231035Z AUTO 34005KT 10SM 15/07 A2996 RMK AO1
Loading
Personal Weather Stations






























Interactive Weather Map
Tropical Storm Tracking
New forecast layout! Learn more

10-Day Weather Forecast

Advertisements
Track Severe Weather on mobile